createdAt,value
2022-09-17T00:14:11.006Z,99124.54
2022-09-17T00:36:02.912Z,99115.58
2022-09-17T00:57:50.181Z,99106.64
2022-09-17T01:20:07.443Z,99105.69
2022-09-17T01:41:59.075Z,99098.58
2022-09-17T02:03:49.739Z,99100.73
2022-09-17T02:25:41.559Z,99099.58
2022-09-17T02:47:52.409Z,99095.70
2022-09-17T03:09:38.128Z,99080.27
2022-09-17T03:31:24.039Z,99074.74
2022-09-17T03:53:09.753Z,99088.92
2022-09-17T04:14:55.547Z,99081.86
2022-09-17T04:36:41.312Z,99070.36
2022-09-17T04:58:27.013Z,99074.98
2022-09-17T05:20:14.190Z,99081.38
2022-09-17T05:42:02.354Z,99076.30
2022-09-17T06:03:48.085Z,99082.25
2022-09-17T06:25:33.722Z,99084.91
2022-09-17T06:47:19.442Z,99107.69
2022-09-17T07:09:09.104Z,99130.78
2022-09-17T07:30:57.004Z,99143.89
2022-09-17T07:52:48.629Z,99160.80
2022-09-17T08:14:34.290Z,99174.45
2022-09-17T08:36:22.771Z,99173.92
2022-09-17T08:58:35.379Z,99169.94
2022-09-17T09:20:27.580Z,99164.47
2022-09-17T09:42:20.581Z,99207.71
2022-09-17T10:04:19.799Z,99236.94
2022-09-17T10:26:06.121Z,99242.52
2022-09-17T10:47:52.403Z,99240.98
2022-09-17T11:09:52.166Z,99237.15
2022-09-17T11:31:47.535Z,99207.89
2022-09-17T11:53:37.935Z,99189.63
2022-09-17T12:15:28.071Z,99177.77
2022-09-17T12:37:23.045Z,99153.17
2022-09-17T12:59:14.608Z,99151.84
2022-09-17T13:21:10.462Z,99101.17
2022-09-17T13:42:58.663Z,99106.86
2022-09-17T14:04:52.478Z,99108.09
2022-09-17T14:26:51.738Z,99096.98
2022-09-17T14:48:38.101Z,99083.80
2022-09-17T15:10:25.124Z,99099.40
2022-09-17T15:32:15.309Z,99103.20
2022-09-17T15:54:04.715Z,99112.23
2022-09-17T16:15:50.642Z,99157.45
2022-09-17T16:37:36.390Z,99164.48
2022-09-17T16:59:22.116Z,99176.92
2022-09-17T17:21:12.306Z,99194.88
2022-09-17T17:42:58.013Z,99198.64
2022-09-17T18:04:43.706Z,99209.63
2022-09-17T18:26:30.693Z,99211.36
2022-09-17T18:48:16.567Z,99210.44
2022-09-17T19:10:03.042Z,99223.21
2022-09-17T19:31:49.265Z,99231.42
2022-09-17T19:53:35.734Z,99221.83
2022-09-17T20:15:21.433Z,99223.71
2022-09-17T20:37:13.498Z,99232.60
2022-09-17T20:59:08.689Z,99232.64
2022-09-17T21:20:54.340Z,99240.25
2022-09-17T21:42:40.031Z,99231.02
2022-09-17T22:04:26.200Z,99231.65
2022-09-17T22:26:12.878Z,99237.27
2022-09-17T22:47:58.697Z,99231.81
2022-09-17T23:09:44.526Z,99221.23
2022-09-17T23:31:31.144Z,99210.45
2022-09-17T23:53:17.045Z,99201.45
